createdAt,value
2023-05-02T00:01:56.874Z,101303.78
2023-05-02T00:04:29.904Z,101323.44
2023-05-02T00:07:01.710Z,101318.06
2023-05-02T00:09:31.330Z,101324.28
2023-05-02T00:12:06.705Z,101316.25
2023-05-02T00:14:35.841Z,101320.13
2023-05-02T00:17:04.832Z,101319.88
2023-05-02T00:19:51.425Z,101324.88
2023-05-02T00:22:20.529Z,101326.97
2023-05-02T00:24:49.611Z,101328.38
2023-05-02T00:27:19.029Z,101328.84
2023-05-02T00:29:49.490Z,101319.81
2023-05-02T00:32:21.790Z,101331.63
2023-05-02T00:34:50.848Z,101334.84
2023-05-02T00:37:25.838Z,101340.69
2023-05-02T00:39:54.857Z,101343.13
2023-05-02T00:42:23.941Z,101340.44
2023-05-02T00:44:56.068Z,101345.69
2023-05-02T00:47:28.032Z,101353.22
2023-05-02T00:49:57.489Z,101352.97
2023-05-02T00:52:26.678Z,101358.78
2023-05-02T00:54:55.737Z,101368.06
2023-05-02T00:57:24.861Z,101365.31
2023-05-02T00:59:56.129Z,101360.91
2023-05-02T01:02:25.194Z,101345.41
2023-05-02T01:05:12.762Z,101336.50
2023-05-02T01:08:14.328Z,101345.28
2023-05-02T01:10:53.904Z,101356.50
2023-05-02T01:13:30.691Z,101363.09
2023-05-02T01:16:09.254Z,101363.66
2023-05-02T01:18:43.192Z,101362.59
2023-05-02T01:21:12.446Z,101357.34
2023-05-02T01:24:04.113Z,101356.25
2023-05-02T01:26:53.988Z,101337.91
2023-05-02T01:29:25.048Z,101336.22
2023-05-02T01:31:54.142Z,101343.28
2023-05-02T01:34:23.209Z,101342.19
2023-05-02T01:36:54.988Z,101367.09
2023-05-02T01:39:24.807Z,101357.91
2023-05-02T01:41:54.921Z,101356.59
2023-05-02T01:44:24.631Z,101351.81
2023-05-02T01:46:54.583Z,101342.38
2023-05-02T01:49:26.418Z,101343.50
2023-05-02T01:51:55.509Z,101354.72
2023-05-02T01:54:25.539Z,101349.09
2023-05-02T01:56:54.629Z,101347.72
2023-05-02T01:59:26.575Z,101349.09
2023-05-02T02:02:01.185Z,101356.69
2023-05-02T02:04:33.257Z,101346.59
2023-05-02T02:07:05.761Z,101351.66
2023-05-02T02:09:37.856Z,101348.97
2023-05-02T02:12:32.713Z,101341.78
2023-05-02T02:15:04.818Z,101333.44
2023-05-02T02:17:41.787Z,101341.56
2023-05-02T02:20:11.870Z,101346.44
2023-05-02T02:22:44.666Z,101349.81
2023-05-02T02:25:16.595Z,101344.25
2023-05-02T02:27:45.747Z,101336.66
2023-05-02T02:30:14.987Z,101331.13
2023-05-02T02:32:52.707Z,101337.16
2023-05-02T02:35:21.905Z,101336.56
2023-05-02T02:38:08.915Z,101330.13
2023-05-02T02:40:43.884Z,101322.63
2023-05-02T02:43:41.921Z,101323.81
2023-05-02T02:46:20.200Z,101313.88
2023-05-02T02:48:58.416Z,101307.66
2023-05-02T02:51:45.762Z,101306.88
2023-05-02T02:54:27.292Z,101300.91
2023-05-02T02:57:01.184Z,101304.06
2023-05-02T02:59:31.290Z,101303.78
2023-05-02T03:02:09.969Z,101300.69
2023-05-02T03:04:43.750Z,101304.34
2023-05-02T03:07:13.006Z,101306.53
2023-05-02T03:09:48.030Z,101303.84
2023-05-02T03:12:19.372Z,101295.63
2023-05-02T03:14:48.713Z,101304.53
2023-05-02T03:17:19.750Z,101298.06
2023-05-02T03:19:49.026Z,101302.53
2023-05-02T03:22:20.652Z,101284.53
2023-05-02T03:25:00.275Z,101290.66
2023-05-02T03:27:29.313Z,101297.47
2023-05-02T03:29:58.640Z,101302.97
2023-05-02T03:32:28.691Z,101303.84
2023-05-02T03:35:04.141Z,101292.50
2023-05-02T03:37:33.209Z,101291.06
2023-05-02T03:40:05.422Z,101293.66
2023-05-02T03:42:41.485Z,101289.34
2023-05-02T03:45:10.833Z,101287.38
2023-05-02T03:47:43.312Z,101274.34
2023-05-02T03:50:12.681Z,101275.25
2023-05-02T03:52:41.703Z,101270.03
2023-05-02T03:55:10.992Z,101267.59
2023-05-02T03:57:39.964Z,101266.28
2023-05-02T04:00:12.229Z,101269.53
2023-05-02T04:02:41.387Z,101266.72
2023-05-02T04:05:13.495Z,101265.59
2023-05-02T04:07:42.684Z,101254.25
2023-05-02T04:10:17.910Z,101262.06
2023-05-02T04:12:46.995Z,101257.09
2023-05-02T04:15:16.057Z,101250.19
2023-05-02T04:17:47.121Z,101251.47
2023-05-02T04:20:19.991Z,101239.16
2023-05-02T04:22:49.644Z,101235.88
2023-05-02T04:25:18.894Z,101225.38
2023-05-02T04:27:47.989Z,101227.38
2023-05-02T04:30:17.072Z,101223.00
2023-05-02T04:32:48.964Z,101223.97
2023-05-02T04:35:18.938Z,101220.84
2023-05-02T04:37:47.943Z,101218.75
2023-05-02T04:40:17.141Z,101213.63
2023-05-02T04:42:48.752Z,101203.72
2023-05-02T04:45:17.815Z,101208.25
2023-05-02T04:47:46.939Z,101197.59
2023-05-02T04:50:15.981Z,101206.38
2023-05-02T04:52:48.837Z,101211.22
2023-05-02T04:55:18.657Z,101201.72
2023-05-02T04:57:51.124Z,101206.59
2023-05-02T05:00:20.911Z,101198.66
2023-05-02T05:02:56.320Z,101205.16
2023-05-02T05:05:39.922Z,101191.53
2023-05-02T05:08:10.037Z,101178.44
2023-05-02T05:10:42.828Z,101175.69
2023-05-02T05:13:17.561Z,101183.75
2023-05-02T05:15:50.312Z,101171.28
2023-05-02T05:18:26.012Z,101176.47
2023-05-02T05:20:58.359Z,101161.19
2023-05-02T05:23:27.973Z,101166.81
2023-05-02T05:26:03.276Z,101157.72
2023-05-02T05:28:33.212Z,101153.34
2023-05-02T05:31:11.004Z,101156.88
2023-05-02T05:33:41.714Z,101146.09
2023-05-02T05:36:17.074Z,101150.03
2023-05-02T05:38:57.662Z,101144.47
2023-05-02T05:41:36.007Z,101144.81
2023-05-02T05:44:05.809Z,101129.47
2023-05-02T05:46:51.724Z,101116.63
2023-05-02T05:49:35.987Z,101125.19
2023-05-02T05:52:11.492Z,101115.31
2023-05-02T05:54:55.618Z,101119.94
2023-05-02T05:57:36.007Z,101111.69
2023-05-02T06:00:22.905Z,101096.91
2023-05-02T06:03:03.187Z,101107.94
2023-05-02T06:05:49.007Z,101115.63
2023-05-02T06:08:19.716Z,101119.06
2023-05-02T06:11:09.870Z,101108.78
2023-05-02T06:13:45.220Z,101101.41
2023-05-02T06:16:26.656Z,101099.38
2023-05-02T06:18:58.343Z,101101.16
2023-05-02T06:21:31.054Z,101111.31
2023-05-02T06:24:03.926Z,101115.63
2023-05-02T06:26:36.662Z,101110.47
2023-05-02T06:29:16.972Z,101107.38
2023-05-02T06:31:55.761Z,101098.91
2023-05-02T06:56:49.221Z,101075.47
2023-05-02T06:59:18.981Z,101078.88
2023-05-02T07:01:50.926Z,101075.81
2023-05-02T07:04:20.824Z,101068.69
2023-05-02T07:06:53.667Z,101063.31
2023-05-02T07:09:23.409Z,101067.25
2023-05-02T07:11:53.132Z,101063.84
2023-05-02T07:14:23.199Z,101059.22
2023-05-02T07:16:53.076Z,101060.41
2023-05-02T07:19:25.917Z,101057.38
2023-05-02T07:21:55.536Z,101052.84
2023-05-02T07:24:28.542Z,101060.78
2023-05-02T07:27:01.249Z,101059.16
2023-05-02T07:29:30.923Z,101062.63
2023-05-02T07:32:00.611Z,101055.38
2023-05-02T07:34:33.265Z,101059.41
2023-05-02T07:37:03.531Z,101052.66
2023-05-02T07:39:35.800Z,101047.75
2023-05-02T07:42:05.868Z,101058.25
2023-05-02T07:44:36.661Z,101055.31
2023-05-02T07:47:06.485Z,101048.66
2023-05-02T07:49:36.078Z,101046.69
2023-05-02T07:52:12.019Z,101050.75
2023-05-02T07:54:41.774Z,101042.84
2023-05-02T07:57:11.538Z,101039.91
2023-05-02T07:59:44.638Z,101031.88
2023-05-02T08:02:15.498Z,101038.28
2023-05-02T08:04:50.339Z,101043.34
2023-05-02T08:07:22.327Z,101039.81
2023-05-02T08:09:52.076Z,101042.38
2023-05-02T08:12:26.808Z,101034.97
2023-05-02T08:15:04.923Z,101019.97
2023-05-02T08:17:34.263Z,101031.34
2023-05-02T08:20:03.386Z,101031.34
2023-05-02T08:22:33.379Z,101023.72
2023-05-02T08:25:02.563Z,101032.28
2023-05-02T08:27:31.644Z,101034.09
2023-05-02T08:30:01.130Z,101023.47
2023-05-02T08:32:31.508Z,101027.19
2023-05-02T08:35:01.308Z,101016.41
2023-05-02T08:37:30.975Z,101019.63
2023-05-02T08:40:04.053Z,101019.47
2023-05-02T08:42:36.461Z,101024.69
2023-05-02T08:45:07.594Z,101015.09
2023-05-02T08:47:43.186Z,101013.53
2023-05-02T08:50:22.460Z,101017.91
2023-05-02T08:52:55.964Z,101009.47
2023-05-02T08:55:29.273Z,101020.06
2023-05-02T08:58:00.602Z,101010.75
2023-05-02T09:00:30.839Z,101019.03
2023-05-02T09:03:24.185Z,101024.53
2023-05-02T09:05:56.876Z,101013.09
2023-05-02T09:08:27.075Z,101026.56
2023-05-02T09:10:57.122Z,101021.47
2023-05-02T09:13:33.572Z,101031.41
2023-05-02T09:16:17.111Z,101030.69
2023-05-02T09:18:48.451Z,101035.25
2023-05-02T09:21:23.167Z,101044.88
2023-05-02T09:23:59.275Z,101046.03
2023-05-02T09:26:36.684Z,101035.53
2023-05-02T09:29:09.936Z,101030.31
2023-05-02T09:34:14.833Z,101027.06
2023-05-02T09:36:46.712Z,101023.63
2023-05-02T09:39:18.186Z,101025.22
2023-05-02T09:41:50.007Z,101027.75
2023-05-02T09:44:27.252Z,101019.97
2023-05-02T09:47:03.609Z,100987.13
2023-05-02T09:49:47.231Z,101007.19
2023-05-02T09:52:19.516Z,101000.38
2023-05-02T09:54:52.007Z,101001.41
2023-05-02T09:57:22.204Z,101002.06
2023-05-02T09:59:58.864Z,100999.66
2023-05-02T10:02:28.935Z,100999.66
2023-05-02T10:05:00.411Z,101002.38
2023-05-02T10:07:30.554Z,101003.66
2023-05-02T10:10:01.518Z,101001.69
2023-05-02T10:12:32.543Z,101003.53
2023-05-02T10:15:06.266Z,101005.22
2023-05-02T10:17:43.995Z,101000.56
2023-05-02T10:20:18.569Z,101002.38
2023-05-02T10:22:48.777Z,100990.19
2023-05-02T10:25:18.527Z,100981.44
2023-05-02T10:27:48.216Z,100981.03
2023-05-02T10:30:21.628Z,100977.81
2023-05-02T10:32:52.216Z,100987.22
2023-05-02T10:35:22.456Z,100980.47
2023-05-02T10:37:55.612Z,100985.41
2023-05-02T10:40:25.815Z,100988.44
2023-05-02T10:42:56.522Z,100995.50
2023-05-02T10:45:48.627Z,100992.09
2023-05-02T10:48:20.443Z,100987.63
2023-05-02T10:50:56.695Z,100991.31
2023-05-02T10:53:34.022Z,101006.47
2023-05-02T10:56:23.200Z,101011.75
2023-05-02T10:58:55.566Z,101021.34
2023-05-02T11:01:28.894Z,101019.09
2023-05-02T11:04:00.249Z,101023.09
2023-05-02T11:06:32.459Z,101040.63
2023-05-02T11:09:23.100Z,101037.81
2023-05-02T11:11:56.552Z,101051.41
2023-05-02T11:14:35.429Z,101045.19
2023-05-02T11:17:07.740Z,101058.19
2023-05-02T11:19:48.921Z,101061.03
2023-05-02T11:22:22.160Z,101068.69
2023-05-02T11:24:53.138Z,101080.00
2023-05-02T11:27:31.863Z,101089.53
2023-05-02T11:30:12.254Z,101085.13
2023-05-02T11:32:51.048Z,101081.72
2023-05-02T11:35:21.484Z,101092.50
2023-05-02T11:38:01.465Z,101092.06
2023-05-02T11:40:31.923Z,101101.00
2023-05-02T11:43:02.893Z,101098.44
2023-05-02T11:45:39.426Z,101103.69
2023-05-02T11:48:12.667Z,101082.28
2023-05-02T11:50:49.584Z,101114.31
2023-05-02T11:53:26.011Z,101120.53
2023-05-02T11:56:01.871Z,101116.28
2023-05-02T11:58:38.258Z,101114.19
2023-05-02T12:01:17.544Z,101119.94
2023-05-02T12:03:47.841Z,101134.72
2023-05-02T12:06:26.115Z,101132.03
2023-05-02T12:09:12.091Z,101129.88
2023-05-02T12:11:41.856Z,101126.38
2023-05-02T12:14:12.565Z,101139.34
2023-05-02T12:16:43.808Z,101133.97
2023-05-02T12:19:14.476Z,101144.16
2023-05-02T12:21:44.110Z,101146.75
2023-05-02T12:24:13.822Z,101136.66
2023-05-02T12:26:43.491Z,101144.16
2023-05-02T12:29:14.126Z,101147.59
2023-05-02T12:31:55.662Z,101152.25
2023-05-02T12:34:41.581Z,101168.97
2023-05-02T12:37:11.661Z,101176.34
2023-05-02T12:39:42.499Z,101166.72
2023-05-02T12:42:19.406Z,101169.28
2023-05-02T12:44:50.507Z,101167.84
2023-05-02T12:47:24.732Z,101177.91
2023-05-02T12:50:01.278Z,101180.31
2023-05-02T12:52:56.538Z,101196.75
2023-05-02T12:55:29.793Z,101204.66
2023-05-02T12:58:12.577Z,101202.97
2023-05-02T13:00:45.562Z,101195.91
2023-05-02T13:03:19.913Z,101199.44
2023-05-02T13:06:02.061Z,101210.91
2023-05-02T13:08:43.271Z,101212.59
2023-05-02T13:11:15.028Z,101212.72
2023-05-02T13:13:44.785Z,101225.06
2023-05-02T13:16:14.547Z,101222.66
2023-05-02T13:18:47.112Z,101220.97
2023-05-02T13:21:17.746Z,101226.63
2023-05-02T13:23:52.065Z,101223.22
2023-05-02T13:26:21.708Z,101205.06
2023-05-02T13:28:51.546Z,101228.72
2023-05-02T13:31:21.799Z,101227.63
2023-05-02T13:33:51.949Z,101224.19
2023-05-02T13:36:21.601Z,101228.72
2023-05-02T13:38:51.246Z,101226.88
2023-05-02T13:41:20.896Z,101194.59
2023-05-02T13:43:50.759Z,101229.31
2023-05-02T13:46:20.500Z,101225.19
2023-05-02T13:48:50.139Z,101233.00
2023-05-02T13:51:20.140Z,101220.81
2023-05-02T13:53:51.157Z,101213.75
2023-05-02T13:56:20.807Z,101213.59
2023-05-02T13:58:50.492Z,101221.94
2023-05-02T14:01:24.116Z,101226.47
2023-05-02T14:03:54.009Z,101223.06
2023-05-02T14:06:23.793Z,101226.47
2023-05-02T14:08:53.885Z,101211.44
2023-05-02T14:11:23.626Z,101212.88
2023-05-02T14:13:56.257Z,101212.28
2023-05-02T14:16:29.090Z,101217.66
2023-05-02T14:18:59.381Z,101217.66
2023-05-02T14:21:29.800Z,101215.28
2023-05-02T14:23:59.770Z,101217.97
2023-05-02T14:26:29.543Z,101231.28
2023-05-02T14:29:00.119Z,101222.78
2023-05-02T14:31:29.793Z,101217.81
2023-05-02T14:33:59.549Z,101205.66
2023-05-02T14:36:42.161Z,101196.72
2023-05-02T14:39:11.985Z,101190.34
2023-05-02T14:41:41.744Z,101197.72
2023-05-02T14:44:12.149Z,101198.41
2023-05-02T14:46:41.976Z,101202.53
2023-05-02T14:49:11.705Z,101202.38
2023-05-02T14:51:42.054Z,101205.91
2023-05-02T14:54:11.733Z,101198.69
2023-05-02T14:56:41.362Z,101201.38
2023-05-02T14:59:11.182Z,101181.28
2023-05-02T15:01:43.104Z,101202.09
2023-05-02T15:04:13.008Z,101200.41
2023-05-02T15:06:42.897Z,101198.69
2023-05-02T15:09:13.704Z,101193.59
2023-05-02T15:11:46.585Z,101195.31
2023-05-02T15:14:25.969Z,101179.44
2023-05-02T15:16:59.405Z,101180.44
2023-05-02T15:19:29.536Z,101188.94
2023-05-02T15:21:59.514Z,101181.44
2023-05-02T15:24:29.559Z,101188.22
2023-05-02T15:26:59.437Z,101177.75
2023-05-02T15:29:29.182Z,101170.09
2023-05-02T15:31:59.199Z,101162.47
2023-05-02T15:34:29.237Z,101155.09
2023-05-02T15:37:00.442Z,101160.63
2023-05-02T15:39:30.583Z,101164.31
2023-05-02T15:42:00.430Z,101172.06
2023-05-02T15:44:30.517Z,101163.31
2023-05-02T15:47:00.337Z,101166.00
2023-05-02T15:49:34.808Z,101163.56
2023-05-02T15:52:08.922Z,101154.50
2023-05-02T15:54:43.647Z,101155.50
2023-05-02T15:57:14.320Z,101148.16
2023-05-02T15:59:43.998Z,101144.06
2023-05-02T16:02:14.593Z,101142.06
2023-05-02T16:04:44.585Z,101159.19
2023-05-02T16:07:14.762Z,101165.56
2023-05-02T16:09:44.491Z,101160.47
2023-05-02T16:12:15.144Z,101163.84
2023-05-02T16:14:44.913Z,101159.63
2023-05-02T16:17:14.463Z,101147.16
2023-05-02T16:19:44.591Z,101149.13
2023-05-02T16:22:14.213Z,101152.53
2023-05-02T16:24:57.257Z,101158.47
2023-05-02T16:27:27.180Z,101159.75
2023-05-02T16:29:56.901Z,101157.06
2023-05-02T16:32:30.054Z,101156.94
2023-05-02T16:34:59.683Z,101155.38
2023-05-02T16:37:32.353Z,101146.88
2023-05-02T16:40:02.882Z,101149.84
2023-05-02T16:42:33.894Z,101146.56
2023-05-02T16:45:03.634Z,101157.78
2023-05-02T16:47:33.600Z,101164.13
2023-05-02T16:50:03.648Z,101155.38
2023-05-02T16:52:33.721Z,101154.38
2023-05-02T16:55:08.058Z,101150.13
2023-05-02T16:57:40.684Z,101154.63
2023-05-02T17:00:16.385Z,101169.81
2023-05-02T17:02:46.343Z,101156.63
2023-05-02T17:07:45.135Z,101155.53
2023-05-02T17:10:14.832Z,101157.47
2023-05-02T17:12:48.386Z,101148.84
2023-05-02T17:17:47.907Z,101153.22
2023-05-02T17:20:18.825Z,101158.91
2023-05-02T17:22:49.013Z,101154.50
2023-05-02T17:25:18.790Z,101152.53
2023-05-02T17:27:51.693Z,101158.75
2023-05-02T17:30:23.149Z,101148.84
2023-05-02T17:32:56.160Z,101152.38
2023-05-02T17:35:25.995Z,101160.72
2023-05-02T17:37:56.951Z,101161.59
2023-05-02T17:40:30.571Z,101145.47
2023-05-02T17:43:00.947Z,101148.25
2023-05-02T17:45:31.348Z,101143.72
2023-05-02T17:48:04.215Z,101151.94
2023-05-02T17:50:41.578Z,101152.81
2023-05-02T17:53:11.359Z,101155.63
2023-05-02T17:55:41.153Z,101153.66
2023-05-02T17:58:11.290Z,101157.44
2023-05-02T18:00:41.852Z,101159.03
2023-05-02T18:03:11.653Z,101154.50
2023-05-02T18:05:42.764Z,101155.50
2023-05-02T18:08:15.420Z,101157.34
2023-05-02T18:10:45.957Z,101150.38
2023-05-02T18:13:24.065Z,101152.06
2023-05-02T18:16:05.878Z,101146.00
2023-05-02T18:18:36.516Z,101153.06
2023-05-02T18:21:11.658Z,101145.72
2023-05-02T18:23:41.718Z,101148.53
2023-05-02T18:26:14.428Z,101141.47
2023-05-02T18:28:47.089Z,101144.72
2023-05-02T18:31:19.279Z,101149.13
2023-05-02T18:33:51.263Z,101151.91
2023-05-02T18:36:25.648Z,101145.84
2023-05-02T18:38:55.734Z,101142.31
2023-05-02T18:41:24.920Z,101145.69
2023-05-02T18:43:58.702Z,101147.81
2023-05-02T18:46:29.337Z,101144.84
2023-05-02T18:48:58.738Z,101146.25
2023-05-02T18:51:30.400Z,101151.91
2023-05-02T18:53:59.464Z,101150.50
2023-05-02T18:56:28.620Z,101146.97
2023-05-02T18:58:58.978Z,101147.13
2023-05-02T19:01:31.261Z,101149.81
2023-05-02T19:04:02.415Z,101154.69
2023-05-02T19:06:33.108Z,101158.09
2023-05-02T19:09:02.370Z,101154.88
2023-05-02T19:11:35.067Z,101154.56
2023-05-02T19:14:05.118Z,101152.59
2023-05-02T19:16:36.413Z,101149.31
2023-05-02T19:19:08.357Z,101154.69
2023-05-02T19:21:37.898Z,101147.78
2023-05-02T19:24:07.715Z,101154.13
2023-05-02T19:26:36.914Z,101158.06
2023-05-02T19:29:06.026Z,101144.50
2023-05-02T19:31:38.658Z,101146.63
2023-05-02T19:34:10.672Z,101146.78
2023-05-02T19:36:39.974Z,101135.31
2023-05-02T19:39:09.716Z,101135.88
2023-05-02T19:41:40.170Z,101143.09
2023-05-02T19:44:09.213Z,101147.25
2023-05-02T19:46:41.400Z,101146.78
2023-05-02T19:49:11.324Z,101148.47
2023-05-02T19:51:40.342Z,101147.78
2023-05-02T19:54:09.832Z,101148.16
2023-05-02T19:56:40.893Z,101150.84
2023-05-02T19:59:09.990Z,101142.22
2023-05-02T20:01:44.149Z,101145.78
2023-05-02T20:04:13.430Z,101142.41
2023-05-02T20:06:45.200Z,101143.09
2023-05-02T20:09:14.306Z,101143.94
2023-05-02T20:11:43.669Z,101153.84
2023-05-02T20:14:15.943Z,101162.28
2023-05-02T20:16:45.165Z,101163.13
2023-05-02T20:19:14.163Z,101153.53
2023-05-02T20:21:46.529Z,101152.78
2023-05-02T20:24:15.650Z,101152.09
2023-05-02T20:26:44.846Z,101154.38
2023-05-02T20:29:14.925Z,101150.94
2023-05-02T20:31:44.119Z,101150.09
2023-05-02T20:34:14.263Z,101142.78
2023-05-02T20:36:43.348Z,101138.25
2023-05-02T20:39:13.058Z,101141.19
2023-05-02T20:41:42.246Z,101140.94
2023-05-02T20:44:11.288Z,101137.66
2023-05-02T20:46:40.355Z,101129.03
2023-05-02T20:49:10.183Z,101126.06
2023-05-02T20:51:39.272Z,101126.66
2023-05-02T20:54:08.312Z,101122.13
2023-05-02T20:56:37.242Z,101124.38
2023-05-02T20:59:09.570Z,101132.25
2023-05-02T21:01:38.737Z,101128.72
2023-05-02T21:04:08.190Z,101128.72
2023-05-02T21:06:37.317Z,101128.31
2023-05-02T21:09:09.503Z,101127.59
2023-05-02T21:11:38.513Z,101130.81
2023-05-02T21:14:07.561Z,101132.66
2023-05-02T21:16:37.154Z,101145.69
2023-05-02T21:19:06.236Z,101138.50
2023-05-02T21:21:35.278Z,101142.19
2023-05-02T21:24:05.527Z,101138.09
2023-05-02T21:26:34.588Z,101142.88
2023-05-02T21:29:06.967Z,101137.50
2023-05-02T21:31:41.390Z,101136.81
2023-05-02T21:34:20.444Z,101140.81
2023-05-02T21:36:49.448Z,101145.44
2023-05-02T21:39:19.763Z,101138.94
2023-05-02T21:41:48.788Z,101141.50
2023-05-02T21:44:21.522Z,101145.28
2023-05-02T21:46:50.736Z,101148.16
2023-05-02T21:49:25.802Z,101154.38
2023-05-02T21:52:05.689Z,101155.00
2023-05-02T21:55:10.991Z,101161.28
2023-05-02T21:57:41.078Z,101153.47
2023-05-02T22:00:14.550Z,101161.19
2023-05-02T22:02:43.736Z,101174.41
2023-05-02T22:05:13.085Z,101169.03
2023-05-02T22:07:42.022Z,101174.41
2023-05-02T22:10:11.412Z,101173.94
2023-05-02T22:12:40.355Z,101178.72
2023-05-02T22:15:09.976Z,101177.75
2023-05-02T22:17:38.892Z,101175.50
2023-05-02T22:20:11.557Z,101169.75
2023-05-02T22:22:41.214Z,101179.09
2023-05-02T22:25:11.280Z,101178.84
2023-05-02T22:27:40.291Z,101174.63
2023-05-02T22:30:10.583Z,101174.38
2023-05-02T22:32:39.624Z,101178.34
2023-05-02T22:35:08.847Z,101180.50
2023-05-02T22:37:37.837Z,101171.59
2023-05-02T22:40:09.782Z,101176.13
2023-05-02T22:42:38.769Z,101157.50
2023-05-02T22:45:09.204Z,101177.25
2023-05-02T22:47:38.552Z,101168.81
2023-05-02T22:50:11.611Z,101170.22
2023-05-02T22:52:40.686Z,101172.66
2023-05-02T22:55:10.714Z,101179.31
2023-05-02T22:57:40.030Z,101179.56
2023-05-02T23:00:10.845Z,101179.88
2023-05-02T23:02:40.208Z,101176.69
2023-05-02T23:05:11.010Z,101172.00
2023-05-02T23:07:40.021Z,101176.38
2023-05-02T23:10:09.409Z,101164.94
2023-05-02T23:12:38.399Z,101162.25
2023-05-02T23:15:07.977Z,101160.44
2023-05-02T23:17:43.011Z,101164.97
2023-05-02T23:20:12.366Z,101164.97
2023-05-02T23:22:45.695Z,101162.47
2023-05-02T23:25:15.138Z,101168.38
2023-05-02T23:27:44.194Z,101165.84
2023-05-02T23:30:13.414Z,101164.84
2023-05-02T23:32:42.435Z,101165.69
2023-05-02T23:35:12.676Z,101162.47
2023-05-02T23:37:42.215Z,101155.94
2023-05-02T23:40:11.426Z,101165.00
2023-05-02T23:42:41.535Z,101164.41
2023-05-02T23:45:11.014Z,101157.50
2023-05-02T23:47:40.120Z,101161.31
2023-05-02T23:50:09.540Z,101160.91
2023-05-02T23:52:38.524Z,101153.25
2023-05-02T23:55:11.742Z,101154.41
2023-05-02T23:57:40.752Z,101152.81
